Hauptseite
METAR-TAF:

METAR-TAF

Flughäfen :

RAF Lossiemouth

Lossiemouth, Schottland

Breite: 57-43N, Länge: 003-19W, Höhe: 13 m

Beobachtung

Neuester Wetterbericht von vor 35 Minuten, um 23:50 UTC
Wind 2 kt aus Nordost
Temperatur 6°C
Luftfeuchtigkeit 75%
Luftdruck 993 hPa
Sichtweite 10 km oder mehr
Aufgelockert bewölkt in der Höhe von 3800 ft
Durchbrochene Bewölkung in der Höhe von 20000 ft

METAR: EGQS 182350Z 05002KT 9999 SCT038 BKN200 06/02 Q0993 BLU NOSIG

Zeit: 00:25 (00:25 UTC)

Prognose

Neuester Wetterbericht von vor 2 Stunden und 20 Minuten, um 22:05 UTC
Gültige Prognose vom 19 um 00 UTC bis 19 um 18 UTC
Wind 7 kt aus Süd/Südost
Sichtweite 10 km oder mehr
Leicht bewölkt in der Höhe von 3000 ft

TAF: EGQS 182205Z 1900/1918 15007KT 9999 FEW030

Wetterbeobachtungen und Prognosen von mehr als 4000 Flughäfen (METAR und TAF Bericht).

Die verfügbaren Stationen werden durch gelbe und rote Markierungen auf der Karte dargestellt.

Führen Sie die Maus auf sie, um den Namen der Station zu sehen.

Darauf klicken, um die Beobachtung von Wetterbeobachtungen und Prognosen zu sehen.

Um die Karte zu ändern : klicken Sie auf den grünen Tasten mit einem schwarzen Kreuz Zum Vergrößern, auf den grünen Button mit einem Gedankenstrich zu verkleinern, oder auf die grünen Pfeile für benachbarte Karten.


METAR-TAF: